createdAt,value
2017-02-09T08:08:38.705Z,-1.12
2017-02-09T08:09:21.088Z,-1.22
2017-02-09T08:10:01.641Z,-1.2
2017-02-09T08:10:42.078Z,-1.14
2017-02-09T08:11:22.566Z,-1.09
2017-02-09T08:12:03.047Z,-1.14
2017-02-09T08:12:43.580Z,-1.15
2017-02-09T08:13:24.086Z,-1.04
2017-02-09T08:14:04.589Z,-1.12
2017-02-09T08:14:45.090Z,-1.12
2017-02-09T08:15:25.571Z,-1.01
2017-02-09T08:16:06.135Z,-1.14
2017-02-09T08:16:46.686Z,-1.05
2017-02-09T08:17:27.493Z,-1.14
2017-02-09T08:18:07.957Z,-1.04
2017-02-09T08:18:48.473Z,-1.14
2017-02-09T08:19:28.953Z,-1.09
2017-02-09T08:20:09.471Z,-1.01
2017-02-09T08:20:50.189Z,-1.11
2017-02-09T08:21:30.801Z,-1.09
2017-02-09T08:22:11.298Z,-1.07
2017-02-09T08:22:51.747Z,-1.12
2017-02-09T08:23:32.269Z,-1.01
2017-02-09T08:24:12.907Z,-1.07
2017-02-09T08:24:53.548Z,-1.05
2017-02-09T08:25:33.993Z,-1.07
2017-02-09T08:26:14.497Z,-0.94
2017-02-09T08:26:54.981Z,-0.99
2017-02-09T08:27:35.627Z,-1.04
2017-02-09T08:28:16.167Z,-0.97
2017-02-09T08:28:56.690Z,-0.99
2017-02-09T08:29:37.194Z,-0.93
2017-02-09T08:30:17.753Z,-0.89
2017-02-09T08:30:58.261Z,-0.91
2017-02-09T08:31:38.757Z,-0.94
2017-02-09T08:32:19.206Z,-0.83
2017-02-09T08:32:59.720Z,-0.82
2017-02-09T08:33:40.241Z,-0.83
2017-02-09T08:34:20.833Z,-0.85
2017-02-09T08:35:01.335Z,-0.89
2017-02-09T08:35:42.103Z,-0.8
2017-02-09T08:36:22.559Z,-0.85
2017-02-09T08:37:03.059Z,-0.83
2017-02-09T08:37:43.540Z,-0.78
2017-02-09T08:38:24.046Z,-0.75
2017-02-09T08:39:04.604Z,-0.74
2017-02-09T08:39:45.207Z,-0.7
2017-02-09T08:40:25.701Z,-0.67
2017-02-09T08:41:06.215Z,-0.72
2017-02-09T08:41:46.838Z,-0.74
2017-02-09T08:42:27.483Z,-0.8
2017-02-09T08:43:08.016Z,-0.75
2017-02-09T08:43:48.493Z,-0.78
2017-02-09T08:44:29.007Z,-0.75
2017-02-09T08:45:09.549Z,-0.74
2017-02-09T08:45:50.093Z,-0.8
2017-02-09T08:46:30.616Z,-0.74
2017-02-09T08:47:11.093Z,-0.77
2017-02-09T08:47:52.860Z,-0.75
2017-02-09T08:48:33.401Z,-0.74
2017-02-09T08:49:13.843Z,-0.7
2017-02-09T08:49:54.334Z,-0.74
2017-02-09T08:50:34.843Z,-0.77
2017-02-09T08:51:15.341Z,-0.8
2017-02-09T08:51:55.794Z,-0.7
2017-02-09T08:52:36.391Z,-0.67
2017-02-09T08:53:16.885Z,-0.62
2017-02-09T08:53:57.428Z,-0.61
2017-02-09T08:54:37.939Z,-0.56
2017-02-09T08:55:19.433Z,-0.62
2017-02-09T08:55:59.932Z,-0.57
2017-02-09T08:56:40.422Z,-0.62
2017-02-09T08:57:20.858Z,-0.67
2017-02-09T08:58:01.336Z,-0.62
2017-02-09T08:58:41.866Z,-0.56
2017-02-09T08:59:22.381Z,-0.53
2017-02-09T09:00:02.868Z,-0.59
2017-02-09T09:00:43.336Z,-0.57
2017-02-09T09:01:23.913Z,-0.5
2017-02-09T09:02:04.505Z,-0.52
2017-02-09T09:02:44.989Z,-0.49
2017-02-09T09:03:25.447Z,-0.39
2017-02-09T09:04:05.930Z,-0.5
2017-02-09T09:04:46.389Z,-0.49
2017-02-09T09:06:47.182Z,-0.36
2017-02-09T09:07:27.418Z,-0.46
2017-02-09T09:08:07.918Z,-0.44
2017-02-09T09:08:48.413Z,-0.28
2017-02-09T09:09:29.126Z,-0.31
2017-02-09T09:10:09.502Z,-0.28
2017-02-09T09:10:50.184Z,-0.25
2017-02-09T09:11:30.714Z,-0.31
2017-02-09T09:12:11.249Z,-0.23
2017-02-09T09:12:51.879Z,-0.31
2017-02-09T09:13:32.345Z,-0.25
2017-02-09T09:14:13.920Z,-0.25
2017-02-09T09:14:54.468Z,-0.25
2017-02-09T09:15:34.960Z,-0.26
2017-02-09T09:16:15.449Z,-0.23
2017-02-09T09:16:55.897Z,-0.18
2017-02-09T09:17:36.430Z,-0.26
2017-02-09T09:18:16.943Z,-0.29
2017-02-09T09:18:57.494Z,-0.21
2017-02-09T09:19:37.990Z,-0.28
2017-02-09T09:20:18.465Z,-0.28
2017-02-09T09:20:58.971Z,-0.2
2017-02-09T09:21:39.432Z,-0.14
2017-02-09T09:22:19.919Z,-0.13
2017-02-09T09:23:00.542Z,-0.15
2017-02-09T09:23:41.023Z,-0.13
2017-02-09T09:24:21.505Z,-0.07
2017-02-09T09:25:02.022Z,-0.08
2017-02-09T09:25:42.504Z,-0.02
2017-02-09T09:26:22.990Z,0
2017-02-09T09:27:03.476Z,0.05
2017-02-09T09:27:44.000Z,0.03
2017-02-09T09:28:24.506Z,0.05
2017-02-09T09:29:04.957Z,0.1
2017-02-09T09:29:45.474Z,0.1
2017-02-09T09:30:25.991Z,0.15
2017-02-09T09:31:06.465Z,0.21
2017-02-09T09:31:46.954Z,0.15
2017-02-09T09:32:27.475Z,0.15
2017-02-09T09:33:07.941Z,0.12
2017-02-09T09:33:48.429Z,0.22
2017-02-09T09:34:28.987Z,0.16
2017-02-09T09:35:09.464Z,0.15
2017-02-09T09:35:49.937Z,0.12
2017-02-09T09:36:30.425Z,0.19
2017-02-09T09:37:10.920Z,0.18
2017-02-09T09:37:51.482Z,0.23
2017-02-09T09:38:31.879Z,0.23
2017-02-09T09:39:12.386Z,0.15
2017-02-09T09:39:52.846Z,0.21
2017-02-09T09:40:33.807Z,0.15
2017-02-09T09:41:14.321Z,0.16
2017-02-09T09:41:54.817Z,0.19
2017-02-09T09:42:35.924Z,0.25
2017-02-09T09:43:16.418Z,0.32
2017-02-09T09:43:56.890Z,0.43
2017-02-09T09:44:37.348Z,0.34
2017-02-09T09:45:17.998Z,0.4
2017-02-09T09:47:12.065Z,0.44
2017-02-09T09:47:53.107Z,0.37
2017-02-09T09:48:33.567Z,0.47
2017-02-09T09:49:14.094Z,0.44
2017-02-09T09:49:54.741Z,0.5
2017-02-09T09:50:35.259Z,0.41
2017-02-09T09:51:15.724Z,0.44
2017-02-09T09:51:56.192Z,0.55
2017-02-09T09:52:36.690Z,0.52
2017-02-09T09:53:18.250Z,0.63
2017-02-09T09:53:58.694Z,0.56
2017-02-09T09:54:39.141Z,0.73
2017-02-09T09:55:19.771Z,0.7
2017-02-09T09:56:00.291Z,0.63
2017-02-09T09:56:40.742Z,0.62
2017-02-09T09:57:21.217Z,0.69
2017-02-09T09:58:01.698Z,0.76
2017-02-09T09:58:42.287Z,0.69
2017-02-09T09:59:22.819Z,0.69
2017-02-09T10:00:03.322Z,0.7
2017-02-09T10:00:43.795Z,0.68
2017-02-09T10:01:24.281Z,0.69
2017-02-09T10:02:04.819Z,0.7
2017-02-09T10:02:45.333Z,0.74
2017-02-09T10:03:25.874Z,0.77
2017-02-09T10:04:06.335Z,0.65
2017-02-09T10:04:46.823Z,0.7
2017-02-09T10:05:30.182Z,0.68
2017-02-09T10:06:10.666Z,0.74
2017-02-09T10:06:51.123Z,0.77
2017-02-09T10:07:31.601Z,0.69
2017-02-09T10:08:12.111Z,0.66
2017-02-09T10:08:52.584Z,0.83
2017-02-09T10:09:33.093Z,0.74
2017-02-09T10:10:13.557Z,0.81
2017-02-09T10:10:54.070Z,0.83
2017-02-09T10:11:34.634Z,0.77
2017-02-09T10:12:15.110Z,0.83
2017-02-09T10:12:56.374Z,0.88
2017-02-09T10:13:36.924Z,0.87
2017-02-09T10:14:17.395Z,0.91
2017-02-09T10:14:57.918Z,0.88
2017-02-09T10:16:53.001Z,0.98
2017-02-09T10:17:33.149Z,0.98
2017-02-09T10:18:13.651Z,0.96
2017-02-09T10:18:54.165Z,0.96
2017-02-09T10:19:34.659Z,0.96
2017-02-09T10:20:15.148Z,0.96
2017-02-09T10:20:55.638Z,0.94
2017-02-09T10:21:36.144Z,0.96
2017-02-09T10:22:16.630Z,0.95
2017-02-09T10:22:57.178Z,1.04
2017-02-09T10:23:37.651Z,1.08
2017-02-09T10:24:18.171Z,1.1
2017-02-09T10:24:58.621Z,1.12
2017-02-09T10:25:39.093Z,1.12
2017-02-09T10:26:19.600Z,0.95
2017-02-09T10:27:00.696Z,1.06
2017-02-09T10:27:41.288Z,1.06
2017-02-09T10:28:21.782Z,1.06
2017-02-09T10:29:02.265Z,1.12
2017-02-09T10:29:42.809Z,1.05
2017-02-09T10:30:23.292Z,1.05
2017-02-09T10:31:03.762Z,1.1
2017-02-09T10:31:44.243Z,1.1
2017-02-09T10:32:24.747Z,1.16
2017-02-09T10:34:42.621Z,1.26
2017-02-09T10:35:22.771Z,1.24
2017-02-09T10:36:03.323Z,1.28
2017-02-09T10:36:43.805Z,1.24
2017-02-09T10:37:24.332Z,1.3
2017-02-09T10:38:04.783Z,1.32
2017-02-09T10:38:45.300Z,1.24
2017-02-09T10:39:25.914Z,1.19
2017-02-09T10:40:06.444Z,1.38
2017-02-09T10:40:46.958Z,1.38
2017-02-09T10:41:27.580Z,1.41
2017-02-09T10:42:08.056Z,1.4
2017-02-09T10:42:48.576Z,1.35
2017-02-09T10:43:29.022Z,1.31
2017-02-09T10:44:09.510Z,1.42
2017-02-09T10:44:50.032Z,1.4
2017-02-09T10:45:30.477Z,1.4
2017-02-09T10:47:45.087Z,1.4
2017-02-09T10:48:25.395Z,1.4
2017-02-09T10:49:05.884Z,1.38
2017-02-09T10:49:46.385Z,1.4
2017-02-09T10:50:26.939Z,1.35
2017-02-09T10:51:07.425Z,1.37
2017-02-09T10:51:47.881Z,1.35
2017-02-09T10:52:28.399Z,1.38
2017-02-09T10:53:08.867Z,1.41
2017-02-09T10:53:49.476Z,1.34
2017-02-09T10:54:29.970Z,1.34
2017-02-09T10:55:10.470Z,1.3
2017-02-09T10:55:50.957Z,1.32
2017-02-09T10:56:31.431Z,1.34
2017-02-09T10:57:11.978Z,1.3
2017-02-09T10:57:52.452Z,1.24
2017-02-09T10:58:33.059Z,1.19
2017-02-09T10:59:13.553Z,1.2
2017-02-09T10:59:54.010Z,1.31
2017-02-09T11:00:34.476Z,1.26
2017-02-09T11:01:14.976Z,1.26
2017-02-09T11:01:55.457Z,1.32
2017-02-09T11:02:35.973Z,1.34
2017-02-09T11:03:16.475Z,1.34
2017-02-09T11:03:56.972Z,1.4
2017-02-09T11:04:37.526Z,1.4
2017-02-09T11:05:18.013Z,1.45
2017-02-09T11:05:58.512Z,1.49
2017-02-09T11:06:38.992Z,1.49
2017-02-09T11:07:19.457Z,1.48
2017-02-09T11:07:59.942Z,1.53
2017-02-09T11:08:40.400Z,1.49
2017-02-09T11:09:20.963Z,1.52
2017-02-09T11:10:01.494Z,1.59
2017-02-09T11:10:42.005Z,1.7
2017-02-09T11:11:22.467Z,1.59
2017-02-09T11:12:02.942Z,1.52
2017-02-09T11:12:43.450Z,1.48
2017-02-09T11:13:23.944Z,1.59
2017-02-09T11:14:04.458Z,1.68
2017-02-09T11:14:44.985Z,1.59
2017-02-09T11:15:25.480Z,1.67
2017-02-09T11:16:06.036Z,1.63
2017-02-09T11:16:46.489Z,1.73
2017-02-09T11:17:26.997Z,1.67
2017-02-09T11:18:07.452Z,1.8
2017-02-09T11:18:47.954Z,1.76
2017-02-09T11:19:28.404Z,1.68
2017-02-09T11:20:08.915Z,1.71
2017-02-09T11:20:49.389Z,1.77
2017-02-09T11:21:29.963Z,1.73
2017-02-09T11:22:10.438Z,1.66
2017-02-09T11:22:51.036Z,1.62
2017-02-09T11:23:31.544Z,1.66
2017-02-09T11:24:12.056Z,1.59
2017-02-09T11:24:52.525Z,1.55
2017-02-09T11:25:33.002Z,1.63
2017-02-09T11:26:13.462Z,1.7
2017-02-09T11:26:53.966Z,1.62
2017-02-09T11:27:34.509Z,1.63
2017-02-09T11:28:15.081Z,1.73
2017-02-09T11:28:55.539Z,1.76
2017-02-09T11:29:36.005Z,1.76
2017-02-09T11:30:16.470Z,1.74
2017-02-09T11:30:56.937Z,1.78
2017-02-09T11:31:37.469Z,1.84
2017-02-09T11:32:17.921Z,1.78
2017-02-09T11:32:58.390Z,1.92
2017-02-09T11:33:38.885Z,1.95
2017-02-09T11:34:19.556Z,1.91
2017-02-09T11:35:00.055Z,1.94
2017-02-09T11:35:40.523Z,1.88
2017-02-09T11:36:21.001Z,1.95
2017-02-09T11:37:01.542Z,1.88
2017-02-09T11:37:41.998Z,1.89
2017-02-09T11:38:22.500Z,1.92
2017-02-09T11:39:03.013Z,1.91
2017-02-09T11:39:43.558Z,2.02
2017-02-09T11:40:24.162Z,1.94
2017-02-09T11:41:04.657Z,2.06
2017-02-09T11:41:45.232Z,2.04
2017-02-09T11:42:25.738Z,1.97
2017-02-09T11:43:06.293Z,1.95
2017-02-09T11:43:46.815Z,1.88
2017-02-09T11:44:27.286Z,2.13
2017-02-09T11:45:07.878Z,2.28
2017-02-09T11:45:48.349Z,2.26
2017-02-09T11:46:28.848Z,2.2
2017-02-09T11:47:09.408Z,2.22
2017-02-09T11:47:49.922Z,2.24
2017-02-09T11:48:30.459Z,2.22
2017-02-09T11:49:10.915Z,2.29
2017-02-09T11:49:51.491Z,2.32
2017-02-09T11:50:31.965Z,2.31
2017-02-09T11:51:12.477Z,2.24
2017-02-09T11:51:53.026Z,2.38
2017-02-09T11:52:33.516Z,2.35
2017-02-09T11:53:14.071Z,2.38
2017-02-09T11:53:54.554Z,2.43
2017-02-09T11:54:35.045Z,2.43
2017-02-09T11:55:15.597Z,2.42
2017-02-09T11:55:56.365Z,2.33
2017-02-09T11:56:36.785Z,2.35
2017-02-09T11:57:17.333Z,2.32
2017-02-09T11:57:57.837Z,2.47
2017-02-09T11:58:38.890Z,2.53
2017-02-09T11:59:19.375Z,2.61
2017-02-09T11:59:59.837Z,2.62
2017-02-09T12:00:40.504Z,2.65
2017-02-09T12:01:20.985Z,2.62
2017-02-09T12:02:01.502Z,2.74
2017-02-09T12:02:42.237Z,2.67
2017-02-09T12:03:22.710Z,2.65
2017-02-09T12:04:03.443Z,2.68
2017-02-09T12:04:43.919Z,2.69
2017-02-09T12:05:24.440Z,2.71
2017-02-09T12:06:05.013Z,2.65
2017-02-09T12:06:45.523Z,2.72
2017-02-09T12:07:27.960Z,2.77
2017-02-09T12:08:08.407Z,2.6
2017-02-09T12:08:48.900Z,2.53
2017-02-09T12:09:29.352Z,2.65
2017-02-09T12:10:09.840Z,2.71
2017-02-09T12:10:50.343Z,2.62
2017-02-09T12:11:30.815Z,2.68
2017-02-09T12:12:11.320Z,2.56
2017-02-09T12:12:51.831Z,2.69
2017-02-09T12:13:32.353Z,2.54
2017-02-09T12:14:13.622Z,2.51
2017-02-09T12:14:54.114Z,2.47
2017-02-09T12:15:34.718Z,2.49
2017-02-09T12:16:15.228Z,2.5
2017-02-09T12:16:55.744Z,2.44
2017-02-09T12:17:36.240Z,2.5
2017-02-09T12:18:16.754Z,2.35
2017-02-09T12:18:57.335Z,2.36
2017-02-09T12:19:37.813Z,2.32
2017-02-09T12:20:18.319Z,2.26
2017-02-09T12:20:58.794Z,2.32
2017-02-09T12:21:39.293Z,2.43
2017-02-09T12:22:19.788Z,2.31
2017-02-09T12:23:00.248Z,2.33
2017-02-09T12:23:40.728Z,2.36
2017-02-09T12:24:21.234Z,2.42
2017-02-09T12:25:01.699Z,2.35
2017-02-09T12:25:42.200Z,2.43
2017-02-09T12:26:22.937Z,2.32
2017-02-09T12:27:03.452Z,2.29
2017-02-09T12:27:44.045Z,2.35
2017-02-09T12:28:24.530Z,2.36
2017-02-09T12:29:05.058Z,2.5
2017-02-09T12:29:45.594Z,2.53
2017-02-09T12:30:26.067Z,2.47
2017-02-09T12:31:06.639Z,2.53
2017-02-09T12:31:47.183Z,2.53
2017-02-09T12:32:27.651Z,2.56
2017-02-09T12:33:08.176Z,2.56
2017-02-09T12:33:54.028Z,2.47
2017-02-09T12:34:36.413Z,2.49
2017-02-09T12:35:16.994Z,2.47
2017-02-09T12:35:57.921Z,2.36
2017-02-09T12:36:38.407Z,2.36
2017-02-09T12:37:18.937Z,2.5
2017-02-09T12:37:59.514Z,2.54
2017-02-09T12:38:40.085Z,2.46
2017-02-09T12:39:20.584Z,2.51
2017-02-09T12:40:01.054Z,2.36
2017-02-09T12:40:41.563Z,2.44
2017-02-09T12:41:22.974Z,2.5
2017-02-09T12:42:03.449Z,2.35
2017-02-09T12:42:43.948Z,2.32
2017-02-09T12:43:24.450Z,2.31
2017-02-09T12:44:04.946Z,2.36
2017-02-09T12:44:45.400Z,2.36
2017-02-09T12:45:25.882Z,2.35
2017-02-09T12:46:06.381Z,2.31
2017-02-09T12:46:46.945Z,2.31
2017-02-09T12:47:27.451Z,2.35
2017-02-09T12:48:07.984Z,2.38
2017-02-09T12:48:48.605Z,2.33
2017-02-09T12:49:29.007Z,2.28
2017-02-09T12:50:09.575Z,2.29
2017-02-09T12:50:51.189Z,2.29
2017-02-09T12:51:31.725Z,2.26
2017-02-09T12:52:12.343Z,2.25
2017-02-09T12:52:55.137Z,2.24
2017-02-09T12:53:35.778Z,2.24
2017-02-09T12:54:19.837Z,2.25
2017-02-09T12:55:00.371Z,2.22
2017-02-09T12:55:41.060Z,2.28
2017-02-09T12:56:21.572Z,2.28
2017-02-09T12:57:02.127Z,2.26
2017-02-09T12:57:42.600Z,2.25
2017-02-09T12:58:23.122Z,2.39
2017-02-09T12:59:03.646Z,2.35
2017-02-09T12:59:44.170Z,2.31
2017-02-09T13:00:24.602Z,2.32
2017-02-09T13:01:05.139Z,2.33
2017-02-09T13:01:45.710Z,2.24
2017-02-09T13:02:27.031Z,2.33
2017-02-09T13:03:07.599Z,2.32
2017-02-09T13:03:48.172Z,2.26
2017-02-09T13:04:31.145Z,2.25
2017-02-09T13:05:11.645Z,2.28
2017-02-09T13:05:52.309Z,2.25
2017-02-09T13:06:32.812Z,2.22
2017-02-09T13:07:13.312Z,2.26
2017-02-09T13:07:53.768Z,2.33
2017-02-09T13:08:34.368Z,2.29
2017-02-09T13:09:14.832Z,2.33
2017-02-09T13:09:55.527Z,2.25
2017-02-09T13:10:36.006Z,2.22
2017-02-09T13:11:16.551Z,2.31
2017-02-09T13:11:58.689Z,2.32
2017-02-09T13:12:44.641Z,2.13
2017-02-09T13:13:30.881Z,2.1
2017-02-09T13:14:14.442Z,2.13
2017-02-09T13:15:02.698Z,2.1
2017-02-09T13:15:44.249Z,2.15
2017-02-09T13:16:24.635Z,2.2
2017-02-09T13:17:05.171Z,2.17
2017-02-09T13:17:45.754Z,2.22
2017-02-09T13:18:26.215Z,2.28
2017-02-09T13:19:06.881Z,2.24
2017-02-09T13:19:47.401Z,2.18
2017-02-09T13:20:27.923Z,2.24
2017-02-09T13:21:08.424Z,2.24
2017-02-09T13:21:49.013Z,2.2
2017-02-09T13:22:30.148Z,2.13
2017-02-09T13:23:10.648Z,2.25
2017-02-09T13:23:51.232Z,2.2
2017-02-09T13:24:32.078Z,2.15
2017-02-09T13:25:12.544Z,2.14
2017-02-09T13:25:53.045Z,2.2
2017-02-09T13:26:33.543Z,2.1
2017-02-09T13:27:14.041Z,2.22
2017-02-09T13:27:54.602Z,2.22
2017-02-09T13:28:35.157Z,2.26
2017-02-09T13:29:15.693Z,2.28
2017-02-09T13:29:57.135Z,2.17
2017-02-09T13:30:37.596Z,2.18
2017-02-09T13:31:18.184Z,2.25
2017-02-09T13:31:58.680Z,2.15
2017-02-09T13:32:39.345Z,2.22
2017-02-09T13:33:19.923Z,2.15
2017-02-09T13:34:00.472Z,2.28
2017-02-09T13:34:40.995Z,2.28
2017-02-09T13:35:21.425Z,2.14
2017-02-09T13:36:01.892Z,2.11
2017-02-09T13:36:42.405Z,2.11
2017-02-09T13:37:23.191Z,2.08
2017-02-09T13:38:03.777Z,2.15
2017-02-09T13:38:44.253Z,2.02
2017-02-09T13:39:25.245Z,2.14
2017-02-09T13:40:05.786Z,2.15
2017-02-09T13:40:46.288Z,2.13
2017-02-09T13:41:26.755Z,2.1
2017-02-09T13:42:07.296Z,2.02
2017-02-09T13:42:47.747Z,2.1
2017-02-09T13:43:28.447Z,1.99
2017-02-09T13:44:10.835Z,2.15
2017-02-09T13:44:51.366Z,2.13
2017-02-09T13:45:32.159Z,2.1
2017-02-09T13:46:12.717Z,2.18
2017-02-09T13:46:53.165Z,2.15
2017-02-09T13:47:33.709Z,2.14
2017-02-09T13:48:14.175Z,2.13
2017-02-09T13:48:54.845Z,2.1
2017-02-09T13:49:35.260Z,2.25
2017-02-09T13:50:15.954Z,2.24
2017-02-09T13:50:57.384Z,2.22
2017-02-09T13:51:37.882Z,2.24
2017-02-09T13:52:18.956Z,2.24
2017-02-09T13:52:59.567Z,2.28
2017-02-09T13:53:40.115Z,2.24
2017-02-09T13:54:20.570Z,2.22
2017-02-09T13:55:01.216Z,2.2
2017-02-09T13:55:41.717Z,2.26
2017-02-09T13:56:22.303Z,2.14
2017-02-09T13:57:02.800Z,2.2
2017-02-09T13:57:43.281Z,2.15
2017-02-09T13:58:23.791Z,2.15
2017-02-09T13:59:04.303Z,2.07
2017-02-09T13:59:44.823Z,2.1
2017-02-09T14:00:25.275Z,2.17
2017-02-09T14:01:05.804Z,2.11
2017-02-09T14:01:46.300Z,2.14
2017-02-09T14:02:26.743Z,2.18
2017-02-09T14:03:07.262Z,2.04
2017-02-09T14:03:48.029Z,2.06
2017-02-09T14:04:28.560Z,2.06
2017-02-09T14:05:09.013Z,1.92
2017-02-09T14:05:49.509Z,1.97
2017-02-09T14:06:29.973Z,1.92
2017-02-09T14:07:10.433Z,1.99
2017-02-09T14:07:50.963Z,2.08
2017-02-09T14:08:31.399Z,1.92
2017-02-09T14:09:11.900Z,2
2017-02-09T14:09:52.392Z,1.94
2017-02-09T14:10:32.946Z,1.92
2017-02-09T14:11:13.461Z,1.92
2017-02-09T14:11:53.965Z,1.94
2017-02-09T14:12:34.408Z,1.87
2017-02-09T14:13:14.893Z,1.92
2017-02-09T14:13:55.563Z,1.89
2017-02-09T14:14:36.176Z,1.78
2017-02-09T14:15:16.555Z,1.88
2017-02-09T14:15:57.029Z,1.85
2017-02-09T14:16:37.551Z,1.81
2017-02-09T14:17:18.045Z,1.81
2017-02-09T14:17:58.509Z,1.81
2017-02-09T14:18:39.069Z,1.71
2017-02-09T14:19:19.538Z,1.76
2017-02-09T14:20:00.028Z,1.84
2017-02-09T14:20:40.496Z,1.74
2017-02-09T14:21:21.972Z,1.77
2017-02-09T14:22:02.463Z,1.7
2017-02-09T14:22:42.970Z,1.78
2017-02-09T14:23:23.479Z,1.76
2017-02-09T14:24:03.958Z,1.76
2017-02-09T14:24:44.504Z,1.74
2017-02-09T14:25:24.969Z,1.77
2017-02-09T14:26:05.480Z,1.73
2017-02-09T14:26:46.001Z,1.74
2017-02-09T14:27:26.522Z,1.76
2017-02-09T14:28:06.973Z,1.74
2017-02-09T14:28:47.475Z,1.68
2017-02-09T14:29:27.962Z,1.62
2017-02-09T14:30:08.402Z,1.67
2017-02-09T14:30:48.894Z,1.58
2017-02-09T14:31:29.379Z,1.52
2017-02-09T14:32:09.865Z,1.48
2017-02-09T14:32:50.329Z,1.55
2017-02-09T14:33:30.827Z,1.5
2017-02-09T14:34:11.318Z,1.53
2017-02-09T14:34:51.794Z,1.45
2017-02-09T14:35:32.271Z,1.38
2017-02-09T14:36:12.725Z,1.37
2017-02-09T14:36:53.220Z,1.3
2017-02-09T14:37:33.739Z,1.2
2017-02-09T14:38:14.247Z,1.17
2017-02-09T14:38:54.730Z,1.22
2017-02-09T14:39:35.224Z,1.14
2017-02-09T14:40:15.741Z,1.14
2017-02-09T14:41:54.509Z,0.98
2017-02-09T14:42:34.605Z,1.1
2017-02-09T14:43:15.103Z,1.04
2017-02-09T14:43:55.617Z,1.02
2017-02-09T14:44:36.090Z,0.95
2017-02-09T14:45:16.643Z,0.95
2017-02-09T14:45:57.158Z,0.92
2017-02-09T14:46:37.640Z,1.01
2017-02-09T14:47:18.132Z,0.95
2017-02-09T14:47:58.591Z,0.94
2017-02-09T14:48:39.057Z,1.04
2017-02-09T14:49:19.563Z,0.95
2017-02-09T14:50:00.016Z,1.01
2017-02-09T14:50:40.525Z,0.94
2017-02-09T14:51:21.752Z,0.91
2017-02-09T14:52:02.222Z,0.8
2017-02-09T14:52:42.719Z,0.91
2017-02-09T14:53:23.204Z,0.77
2017-02-09T14:54:03.768Z,0.84
2017-02-09T14:54:44.255Z,0.8
2017-02-09T14:55:24.809Z,0.84
2017-02-09T14:56:05.283Z,0.88
2017-02-09T14:56:45.846Z,0.87
2017-02-09T14:57:26.318Z,0.87
2017-02-09T14:58:06.791Z,0.98
2017-02-09T14:58:47.246Z,0.91
2017-02-09T14:59:27.793Z,0.96
2017-02-09T15:00:08.296Z,0.87
2017-02-09T15:00:48.807Z,0.91
2017-02-09T15:01:29.279Z,0.88
2017-02-09T15:02:09.802Z,0.98
2017-02-09T15:02:50.281Z,0.91
2017-02-09T15:03:30.814Z,0.92
2017-02-09T15:04:11.302Z,0.76
2017-02-09T15:04:51.791Z,0.83
2017-02-09T15:05:32.254Z,0.83
2017-02-09T15:06:12.750Z,0.8
2017-02-09T15:06:53.254Z,0.83
2017-02-09T15:07:33.745Z,0.8
2017-02-09T15:08:14.523Z,0.87
2017-02-09T15:08:55.237Z,0.8
2017-02-09T15:10:43.473Z,0.78
2017-02-09T15:11:24.153Z,0.91
2017-02-09T15:12:04.735Z,0.77
2017-02-09T15:12:45.230Z,0.87
2017-02-09T15:13:25.711Z,0.78
2017-02-09T15:14:06.195Z,0.81
2017-02-09T15:14:46.681Z,0.78
2017-02-09T15:15:27.186Z,0.7
2017-02-09T15:16:07.654Z,0.78
2017-02-09T15:16:48.182Z,0.76
2017-02-09T15:17:28.665Z,0.66
2017-02-09T15:18:09.163Z,0.77
2017-02-09T15:18:49.696Z,0.69
2017-02-09T15:19:30.277Z,0.62
2017-02-09T15:20:10.683Z,0.65
2017-02-09T15:20:51.229Z,0.62
2017-02-09T15:21:31.730Z,0.63
2017-02-09T15:22:12.247Z,0.58
2017-02-09T15:22:52.949Z,0.66
2017-02-09T15:23:33.417Z,0.66
2017-02-09T15:24:13.935Z,0.6
2017-02-09T15:24:54.416Z,0.69
2017-02-09T15:25:34.970Z,0.74
2017-02-09T15:26:15.427Z,0.77
2017-02-09T15:26:55.943Z,0.73
2017-02-09T15:27:36.412Z,0.76
2017-02-09T15:28:16.879Z,0.68
2017-02-09T15:28:57.449Z,0.7
2017-02-09T15:29:37.935Z,0.66
2017-02-09T15:30:18.543Z,0.73
2017-02-09T15:30:59.040Z,0.69
2017-02-09T15:31:39.545Z,0.69
2017-02-09T15:32:20.081Z,0.7
2017-02-09T15:33:00.595Z,0.69
2017-02-09T15:33:41.062Z,0.69
2017-02-09T15:34:21.548Z,0.6
2017-02-09T15:35:02.963Z,0.65
2017-02-09T15:35:43.474Z,0.62
2017-02-09T15:36:24.273Z,0.6
2017-02-09T15:37:04.843Z,0.56
2017-02-09T15:37:45.353Z,0.58
2017-02-09T15:38:25.871Z,0.55
2017-02-09T15:39:06.347Z,0.5
2017-02-09T15:39:46.801Z,0.37
2017-02-09T15:40:27.618Z,0.47
2017-02-09T15:41:08.166Z,0.46
2017-02-09T15:41:48.654Z,0.44
2017-02-09T15:42:29.118Z,0.41
2017-02-09T15:43:09.591Z,0.37
2017-02-09T15:43:50.095Z,0.43
2017-02-09T15:44:30.579Z,0.37
2017-02-09T15:45:11.073Z,0.37
2017-02-09T15:45:51.669Z,0.41
2017-02-09T15:46:32.230Z,0.31
2017-02-09T15:47:12.678Z,0.31
2017-02-09T15:47:53.141Z,0.29
2017-02-09T15:48:33.626Z,0.29
2017-02-09T15:49:14.105Z,0.36
2017-02-09T15:49:54.613Z,0.22
2017-02-09T15:50:35.107Z,0.19
2017-02-09T15:51:15.593Z,0.19
2017-02-09T15:51:56.136Z,0.21
2017-02-09T15:52:36.629Z,0.25
2017-02-09T15:53:17.073Z,0.16
2017-02-09T15:53:57.572Z,0.21
2017-02-09T15:54:38.114Z,0.25
2017-02-09T15:55:18.733Z,0.19
2017-02-09T15:55:59.253Z,0.21
2017-02-09T15:56:39.797Z,0.18
2017-02-09T15:57:20.320Z,0.19
2017-02-09T15:58:00.823Z,0.1
2017-02-09T15:58:41.463Z,0.05
2017-02-09T15:59:22.333Z,0.08
2017-02-09T16:00:02.937Z,0.05
2017-02-09T16:00:43.566Z,0.05
2017-02-09T16:01:24.051Z,0.11
2017-02-09T16:02:04.509Z,0.01
2017-02-09T16:02:45.041Z,0.03
2017-02-09T16:03:25.578Z,0.04
2017-02-09T16:04:06.087Z,0.03
2017-02-09T16:04:46.567Z,0.03
2017-02-09T16:05:27.028Z,0.07
2017-02-09T16:06:07.517Z,0.05
2017-02-09T16:06:47.966Z,0.03
2017-02-09T16:07:28.481Z,0.04
2017-02-09T16:08:09.019Z,0.01
2017-02-09T16:08:49.482Z,0.04
2017-02-09T16:09:29.913Z,0.12
2017-02-09T16:10:10.426Z,0.08
2017-02-09T16:10:50.970Z,0.05
2017-02-09T16:11:31.431Z,0.07
2017-02-09T16:13:31.396Z,0.03
2017-02-09T16:14:18.870Z,0.01
2017-02-09T16:15:06.969Z,0.04
2017-02-09T16:15:56.027Z,0.04
2017-02-09T16:16:44.738Z,0
2017-02-09T16:17:33.914Z,0.03
2017-02-09T16:18:19.904Z,0.01
2017-02-09T16:19:00.482Z,0.03
2017-02-09T16:19:40.970Z,0.05
2017-02-09T16:20:21.487Z,0.08
2017-02-09T16:21:01.954Z,0.05
2017-02-09T16:21:42.595Z,0.04
2017-02-09T16:22:23.031Z,0
2017-02-09T16:23:03.592Z,0
2017-02-09T16:23:44.084Z,0.05
2017-02-09T16:24:24.541Z,0.01
2017-02-09T16:25:05.029Z,0.07
2017-02-09T16:25:45.540Z,0.04
2017-02-09T16:26:25.988Z,0.03
2017-02-09T16:27:06.495Z,-0.06
2017-02-09T16:27:46.985Z,0
2017-02-09T16:28:27.632Z,-0.06
2017-02-09T16:29:08.102Z,-0.08
2017-02-09T16:29:48.675Z,-0.14
2017-02-09T16:30:29.143Z,-0.03
2017-02-09T16:31:09.681Z,-0.08
2017-02-09T16:31:50.189Z,-0.11
2017-02-09T16:32:30.678Z,-0.13
2017-02-09T16:33:11.199Z,-0.11
2017-02-09T16:33:51.668Z,-0.11
2017-02-09T16:34:32.195Z,-0.15
2017-02-09T16:35:12.635Z,-0.23
2017-02-09T16:35:53.088Z,-0.14
2017-02-09T16:36:34.503Z,-0.2
2017-02-09T16:37:15.004Z,-0.1
2017-02-09T16:37:55.760Z,-0.21
2017-02-09T16:38:36.289Z,-0.11
2017-02-09T16:39:16.828Z,-0.17
2017-02-09T16:39:57.292Z,-0.15
2017-02-09T16:40:37.837Z,-0.2
2017-02-09T16:41:19.331Z,-0.13
2017-02-09T16:41:59.855Z,-0.18
2017-02-09T16:42:41.547Z,-0.11
2017-02-09T16:43:22.177Z,-0.18
2017-02-09T16:44:02.650Z,-0.17
2017-02-09T16:44:43.159Z,-0.1
2017-02-09T16:45:23.634Z,-0.15
2017-02-09T16:46:04.316Z,-0.18
2017-02-09T16:46:44.965Z,-0.18
2017-02-09T16:47:25.418Z,-0.2
2017-02-09T16:48:06.657Z,-0.28
2017-02-09T16:48:47.339Z,-0.31
2017-02-09T16:49:27.838Z,-0.25
2017-02-09T16:50:08.334Z,-0.28
2017-02-09T16:50:50.677Z,-0.26
2017-02-09T16:51:31.125Z,-0.2
2017-02-09T16:52:11.643Z,-0.26
2017-02-09T16:52:52.127Z,-0.26
2017-02-09T16:53:32.672Z,-0.35
2017-02-09T16:54:14.988Z,-0.23
2017-02-09T16:54:55.570Z,-0.38
2017-02-09T16:55:36.053Z,-0.31
2017-02-09T16:56:16.629Z,-0.21
2017-02-09T16:56:57.166Z,-0.2
2017-02-09T16:57:37.667Z,-0.21
2017-02-09T16:58:18.157Z,-0.31
2017-02-09T16:58:58.655Z,-0.26
2017-02-09T16:59:39.164Z,-0.28
2017-02-09T17:00:20.594Z,-0.36
2017-02-09T17:01:01.046Z,-0.38
2017-02-09T17:01:41.495Z,-0.41
2017-02-09T17:02:22.033Z,-0.34
2017-02-09T17:03:02.442Z,-0.41
2017-02-09T17:03:42.941Z,-0.47
2017-02-09T17:04:23.444Z,-0.41
2017-02-09T17:05:03.910Z,-0.47
2017-02-09T17:05:44.403Z,-0.47
2017-02-09T17:06:24.915Z,-0.54
2017-02-09T17:07:05.491Z,-0.5
2017-02-09T17:07:45.930Z,-0.53
2017-02-09T17:08:26.484Z,-0.53
2017-02-09T17:09:07.030Z,-0.57
2017-02-09T17:09:47.574Z,-0.57
2017-02-09T17:10:28.037Z,-0.52
2017-02-09T17:11:08.575Z,-0.61
2017-02-09T17:11:49.099Z,-0.59
2017-02-09T17:12:29.545Z,-0.65
2017-02-09T17:13:10.069Z,-0.72
2017-02-09T17:13:50.632Z,-0.67
2017-02-09T17:14:31.131Z,-0.62
2017-02-09T17:15:11.635Z,-0.68
2017-02-09T17:15:52.110Z,-0.74
2017-02-09T17:16:32.561Z,-0.72
2017-02-09T17:17:13.112Z,-0.8
2017-02-09T17:17:54.562Z,-0.82